createdAt,value
2019-02-10T00:01:06.751Z,35.7
2019-02-10T00:02:16.053Z,35.6
2019-02-10T00:03:25.356Z,35.7
2019-02-10T00:04:34.762Z,36.2
2019-02-10T00:05:43.975Z,36.2
2019-02-10T00:06:53.267Z,36.1
2019-02-10T00:08:02.592Z,35.9
2019-02-10T00:09:11.922Z,36.3
2019-02-10T00:10:21.188Z,36.5
2019-02-10T00:11:30.485Z,36.9
2019-02-10T00:12:39.806Z,36.8
2019-02-10T00:13:49.100Z,36.4
2019-02-10T00:14:58.433Z,36.8
2019-02-10T00:16:07.729Z,36.5
2019-02-10T00:17:17.007Z,36.7
2019-02-10T00:18:26.363Z,37
2019-02-10T00:19:35.624Z,37.1
2019-02-10T00:20:44.987Z,37.6
2019-02-10T00:21:54.227Z,37.5
2019-02-10T00:23:03.525Z,37.8
2019-02-10T00:24:12.834Z,38.2
2019-02-10T00:25:22.234Z,37.3
2019-02-10T00:26:31.442Z,37.7
2019-02-10T00:27:40.740Z,37.6
2019-02-10T00:28:50.046Z,37.1
2019-02-10T00:29:59.423Z,37.3
2019-02-10T00:31:08.644Z,37.6
2019-02-10T00:32:17.933Z,37.8
2019-02-10T00:33:27.248Z,37.5
2019-02-10T00:34:36.551Z,37.7
2019-02-10T00:35:45.839Z,37.4
2019-02-10T00:36:55.126Z,37.7
2019-02-10T00:38:04.430Z,37.9
2019-02-10T00:39:13.723Z,38.2
2019-02-10T00:40:23.052Z,38.2
2019-02-10T00:41:32.381Z,38.2
2019-02-10T00:42:41.668Z,38.1
2019-02-10T00:43:50.919Z,38.9
2019-02-10T00:45:00.269Z,39.3
2019-02-10T00:46:09.515Z,39.2
2019-02-10T00:47:18.808Z,39.5
2019-02-10T00:48:28.150Z,39.4
2019-02-10T00:49:37.413Z,39.6
2019-02-10T00:50:46.739Z,39.6
2019-02-10T00:51:56.026Z,39.9
2019-02-10T00:53:05.293Z,39.9
2019-02-10T00:54:14.596Z,40.2
2019-02-10T00:55:23.882Z,40.7
2019-02-10T00:56:33.295Z,40.7
2019-02-10T00:57:42.467Z,41.1
2019-02-10T00:58:51.772Z,41.5
2019-02-10T01:00:01.068Z,41.9
2019-02-10T01:01:10.366Z,42.5
2019-02-10T01:02:19.651Z,42.7
2019-02-10T01:03:28.961Z,43.1
2019-02-10T01:04:38.267Z,43.7
2019-02-10T01:05:47.570Z,43.7
2019-02-10T01:06:56.848Z,43.7
2019-02-10T01:08:06.133Z,43.6
2019-02-10T01:09:15.449Z,43.6
2019-02-10T01:10:24.757Z,43.6
2019-02-10T01:11:34.020Z,43.8
2019-02-10T01:12:43.289Z,44.2
2019-02-10T01:13:52.574Z,44.1
2019-02-10T01:15:01.902Z,44.8
2019-02-10T01:16:11.139Z,44.7
2019-02-10T01:17:20.430Z,44.4
2019-02-10T01:18:29.733Z,45
2019-02-10T01:19:39.013Z,45.3
2019-02-10T01:20:48.292Z,46
2019-02-10T01:21:57.581Z,46
2019-02-10T01:23:06.867Z,46.2
2019-02-10T01:24:16.214Z,46.6
2019-02-10T01:25:25.424Z,47
2019-02-10T01:26:34.718Z,47.3
2019-02-10T01:27:44.002Z,47.9
2019-02-10T01:28:53.301Z,48.2
2019-02-10T01:30:02.607Z,49
2019-02-10T01:31:11.853Z,49.2
2019-02-10T01:32:21.138Z,49.2
2019-02-10T01:33:30.425Z,49.2
2019-02-10T01:34:39.700Z,49.8
2019-02-10T01:35:49.014Z,50.1
2019-02-10T01:36:58.258Z,50.2
2019-02-10T01:38:07.579Z,50.3
2019-02-10T01:39:16.904Z,50.5
2019-02-10T01:40:26.097Z,51.1
2019-02-10T01:41:35.683Z,51.5
2019-02-10T01:42:44.642Z,51.6
2019-02-10T01:43:53.955Z,51.9
2019-02-10T01:45:03.208Z,51.9
2019-02-10T01:46:12.499Z,52.3
2019-02-10T01:47:21.753Z,52.9
2019-02-10T01:48:31.025Z,53
2019-02-10T01:49:40.355Z,53.5
2019-02-10T01:50:49.669Z,53.7
2019-02-10T01:51:58.849Z,53.4
2019-02-10T01:53:08.120Z,53.7
2019-02-10T01:54:17.424Z,54.6
2019-02-10T01:55:26.668Z,54.6
2019-02-10T01:56:35.949Z,54.6
2019-02-10T01:57:45.216Z,54.6
2019-02-10T01:58:54.490Z,54.6
2019-02-10T02:00:03.854Z,54.6
2019-02-10T02:01:13.026Z,55.1
2019-02-10T02:02:22.291Z,55.7
2019-02-10T02:03:31.615Z,55.8
2019-02-10T02:04:40.843Z,55.7
2019-02-10T02:05:50.112Z,55.5
2019-02-10T02:06:59.379Z,55.4
2019-02-10T02:08:08.658Z,55.8
2019-02-10T02:09:17.917Z,56.5
2019-02-10T02:10:27.191Z,56.4
2019-02-10T02:11:36.461Z,56
2019-02-10T02:12:45.749Z,56.7
2019-02-10T02:13:55.001Z,57
2019-02-10T02:15:04.262Z,56.8
2019-02-10T02:16:13.570Z,56.7
2019-02-10T02:17:22.809Z,57
2019-02-10T02:18:32.133Z,57.7
2019-02-10T02:19:41.378Z,57.4
2019-02-10T02:20:50.604Z,57.7
2019-02-10T02:21:59.875Z,58.1
2019-02-10T02:23:09.142Z,58.1
2019-02-10T02:24:18.607Z,58.8
2019-02-10T02:25:29.296Z,58.4
2019-02-10T02:26:38.567Z,58.8
2019-02-10T02:27:47.817Z,58.5
2019-02-10T02:28:57.083Z,58.6
2019-02-10T02:30:06.346Z,58.6
2019-02-10T02:31:15.616Z,58.6
2019-02-10T02:32:24.882Z,59
2019-02-10T02:33:34.142Z,59.2
2019-02-10T02:34:43.410Z,59.3
2019-02-10T02:35:52.676Z,58.7
2019-02-10T02:37:08.416Z,59
2019-02-10T02:38:11.198Z,59.4
2019-02-10T02:39:20.461Z,59.5
2019-02-10T02:40:29.727Z,59.2
2019-02-10T02:41:39.000Z,59.6
2019-02-10T02:42:48.247Z,59.2
2019-02-10T02:43:57.521Z,59.9
2019-02-10T02:45:08.007Z,59.5
2019-02-10T02:46:16.046Z,59.9
2019-02-10T02:47:25.316Z,59.8
2019-02-10T02:48:34.572Z,59.9
2019-02-10T02:49:43.834Z,59.8
2019-02-10T02:50:53.086Z,59.8
2019-02-10T02:52:02.397Z,59.9
2019-02-10T02:53:11.688Z,59.9
2019-02-10T02:54:20.879Z,59.7
2019-02-10T02:55:30.156Z,59.8
2019-02-10T02:56:39.428Z,59.8
2019-02-10T02:57:48.786Z,59.9
2019-02-10T02:58:57.930Z,59.8
2019-02-10T03:00:07.265Z,59.8
2019-02-10T03:01:16.445Z,59.9
2019-02-10T03:02:25.701Z,59.9
2019-02-10T03:03:34.968Z,59.8
2019-02-10T03:04:44.236Z,59.9
2019-02-10T03:05:53.500Z,59.9
2019-02-10T03:07:02.793Z,59.8
2019-02-10T03:08:12.021Z,59.9
2019-02-10T03:09:21.289Z,59.8
2019-02-10T03:10:30.529Z,59.8
2019-02-10T03:11:39.772Z,59.9
2019-02-10T03:12:49.089Z,59.8
2019-02-10T03:13:58.310Z,59.9
2019-02-10T03:15:07.564Z,59.8
2019-02-10T03:16:16.887Z,60.2
2019-02-10T03:17:26.098Z,60.3
2019-02-10T03:18:35.340Z,59.8
2019-02-10T03:19:44.590Z,60.4
2019-02-10T03:20:53.865Z,60.8
2019-02-10T03:22:03.142Z,60.3
2019-02-10T03:23:12.376Z,60.1
2019-02-10T03:24:21.655Z,60.8
2019-02-10T03:25:30.961Z,60.7
2019-02-10T03:26:40.156Z,59.8
2019-02-10T03:27:49.410Z,59.8
2019-02-10T03:28:58.671Z,60.1
2019-02-10T03:30:07.963Z,60.9
2019-02-10T03:31:17.202Z,60.9
2019-02-10T03:32:26.522Z,60.5
2019-02-10T03:33:35.714Z,60.4
2019-02-10T03:34:44.958Z,60.5
2019-02-10T03:35:54.242Z,61
2019-02-10T03:37:03.489Z,60.8
2019-02-10T03:38:12.742Z,61.2
2019-02-10T03:39:22.008Z,61.3
2019-02-10T03:40:31.351Z,61.6
2019-02-10T03:41:40.513Z,61.4
2019-02-10T03:42:49.832Z,61.4
2019-02-10T03:43:59.047Z,61.6
2019-02-10T03:45:08.294Z,61.4
2019-02-10T03:46:17.640Z,62
2019-02-10T03:47:26.840Z,62.5
2019-02-10T03:48:36.073Z,61.9
2019-02-10T03:49:45.325Z,61.7
2019-02-10T03:50:54.571Z,61.9
2019-02-10T03:52:03.839Z,61.7
2019-02-10T03:53:13.085Z,62.3
2019-02-10T03:54:22.329Z,62.6
2019-02-10T03:55:31.625Z,63
2019-02-10T03:56:40.872Z,62.9
2019-02-10T03:57:50.095Z,63
2019-02-10T03:58:59.348Z,63.2
2019-02-10T04:00:08.637Z,63
2019-02-10T04:01:18.079Z,62.8
2019-02-10T04:02:27.127Z,63
2019-02-10T04:03:36.441Z,63.4
2019-02-10T04:04:45.625Z,63.8
2019-02-10T04:05:54.868Z,63.5
2019-02-10T04:07:04.148Z,63.3
2019-02-10T04:08:13.389Z,63.6
2019-02-10T04:09:22.629Z,63.5
2019-02-10T04:10:31.878Z,64.1
2019-02-10T04:11:41.153Z,63.2
2019-02-10T04:12:50.379Z,63.5
2019-02-10T04:13:59.642Z,63.5
2019-02-10T04:15:08.942Z,63.4
2019-02-10T04:16:18.148Z,63.3
2019-02-10T04:17:27.388Z,63.4
2019-02-10T04:18:36.687Z,63
2019-02-10T04:19:45.900Z,63.1
2019-02-10T04:20:55.149Z,63.9
2019-02-10T04:22:04.399Z,64.3
2019-02-10T04:23:13.639Z,64.8
2019-02-10T04:24:22.915Z,64.8
2019-02-10T04:25:32.193Z,64.5
2019-02-10T04:26:41.429Z,63.7
2019-02-10T04:27:50.709Z,64.2
2019-02-10T04:28:59.963Z,64.1
2019-02-10T04:30:09.684Z,63.8
2019-02-10T04:31:18.417Z,64.1
2019-02-10T04:32:27.699Z,64.4
2019-02-10T04:33:36.947Z,63.9
2019-02-10T04:34:46.224Z,64.4
2019-02-10T04:35:55.408Z,64.8
2019-02-10T04:37:04.658Z,64.8
2019-02-10T04:38:13.927Z,64.1
2019-02-10T04:39:23.172Z,64.2
2019-02-10T04:40:32.437Z,64.2
2019-02-10T04:41:41.654Z,64.8
2019-02-10T04:42:50.925Z,64.8
2019-02-10T04:44:00.190Z,64.8
2019-02-10T04:45:09.439Z,64.7
2019-02-10T04:46:18.683Z,64.8
2019-02-10T04:47:27.914Z,64.8
2019-02-10T04:48:37.154Z,64.8
2019-02-10T04:49:46.416Z,64.7
2019-02-10T04:50:55.683Z,64.8
2019-02-10T04:52:04.896Z,64.8
2019-02-10T04:53:14.154Z,64.7
2019-02-10T04:54:23.401Z,64.8
2019-02-10T04:55:32.704Z,64.7
2019-02-10T04:56:41.890Z,65.2
2019-02-10T04:57:51.200Z,65.3
2019-02-10T04:59:00.423Z,64.8
2019-02-10T05:00:09.667Z,65.2
2019-02-10T05:01:18.910Z,65.8
2019-02-10T05:02:28.128Z,65.5
2019-02-10T05:03:37.413Z,65.8
2019-02-10T05:04:46.646Z,65.7
2019-02-10T05:05:55.871Z,65.1
2019-02-10T05:07:05.114Z,65.4
2019-02-10T05:08:14.379Z,65.3
2019-02-10T05:09:23.620Z,64.8
2019-02-10T05:10:32.847Z,64.9
2019-02-10T05:11:42.140Z,64.7
2019-02-10T05:12:51.360Z,64.7
2019-02-10T05:14:00.596Z,65.2
2019-02-10T05:15:09.847Z,65.6
2019-02-10T05:16:19.127Z,64.9
2019-02-10T05:17:28.406Z,65.4
2019-02-10T05:18:37.613Z,64.8
2019-02-10T05:19:46.825Z,64.8
2019-02-10T05:20:56.082Z,64.8
2019-02-10T05:22:05.319Z,65.3
2019-02-10T05:23:14.573Z,65.4
2019-02-10T05:24:23.825Z,64.9
2019-02-10T05:25:33.049Z,64.8
2019-02-10T05:26:42.322Z,64.7
2019-02-10T05:27:51.552Z,64.8
2019-02-10T05:29:00.817Z,64.8
2019-02-10T05:30:10.132Z,64.8
2019-02-10T05:31:19.319Z,64.7
2019-02-10T05:32:28.558Z,64.8
2019-02-10T05:33:37.811Z,64.8
2019-02-10T05:34:47.063Z,64.9
2019-02-10T05:35:56.299Z,64.9
2019-02-10T05:37:05.571Z,64.8
2019-02-10T05:38:14.822Z,64.9
2019-02-10T05:39:24.048Z,64.8
2019-02-10T05:40:33.322Z,64.9
2019-02-10T05:41:42.564Z,64.8
2019-02-10T05:42:51.828Z,64.9
2019-02-10T05:44:01.045Z,64.9
2019-02-10T05:45:10.324Z,64.7
2019-02-10T05:46:19.567Z,64.9
2019-02-10T05:47:28.810Z,64.9
2019-02-10T05:48:38.056Z,63.9
2019-02-10T05:49:47.343Z,64.3
2019-02-10T05:50:56.609Z,64.2
2019-02-10T05:52:05.826Z,64.7
2019-02-10T05:53:15.103Z,64.4
2019-02-10T05:54:24.328Z,64.9
2019-02-10T05:55:33.574Z,64.9
2019-02-10T05:56:42.815Z,64.2
2019-02-10T05:57:52.077Z,64.5
2019-02-10T05:59:01.417Z,64.1
2019-02-10T06:00:10.600Z,64
2019-02-10T06:01:19.832Z,64.2
2019-02-10T06:02:29.088Z,64.1
2019-02-10T06:03:38.345Z,64
2019-02-10T06:04:47.606Z,63.2
2019-02-10T06:05:56.836Z,63.8
2019-02-10T06:07:06.094Z,64
2019-02-10T06:08:15.365Z,63.9
2019-02-10T06:09:24.611Z,63.5
2019-02-10T06:10:33.859Z,63.7
2019-02-10T06:11:43.108Z,63.8
2019-02-10T06:12:52.455Z,63.7
2019-02-10T06:14:01.617Z,63.9
2019-02-10T06:15:10.874Z,64.3
2019-02-10T06:16:20.182Z,64.3
2019-02-10T06:17:29.375Z,64.1
2019-02-10T06:18:38.778Z,64
2019-02-10T06:19:47.913Z,64
2019-02-10T06:20:57.148Z,63.2
2019-02-10T06:22:06.462Z,63.3
2019-02-10T06:23:15.659Z,63
2019-02-10T06:24:24.910Z,63.1
2019-02-10T06:25:34.178Z,63.4
2019-02-10T06:26:43.421Z,63.6
2019-02-10T06:27:52.705Z,63.7
2019-02-10T06:29:01.943Z,63.7
2019-02-10T06:30:11.213Z,63.8
2019-02-10T06:31:20.512Z,63.8
2019-02-10T06:32:29.722Z,63.4
2019-02-10T06:33:38.973Z,63.3
2019-02-10T06:34:48.267Z,62.6
2019-02-10T06:35:57.510Z,63
2019-02-10T06:37:06.788Z,62.9
2019-02-10T06:38:22.904Z,62.6
2019-02-10T06:39:25.324Z,62.3
2019-02-10T06:40:34.561Z,62.2
2019-02-10T06:41:43.800Z,62.2
2019-02-10T06:42:53.047Z,62.1
2019-02-10T06:44:02.351Z,61.8
2019-02-10T06:45:11.578Z,62.1
2019-02-10T06:46:20.847Z,62.1
2019-02-10T06:47:30.093Z,62.2
2019-02-10T06:48:39.344Z,62.1
2019-02-10T06:49:48.607Z,61.9
2019-02-10T06:50:57.864Z,62
2019-02-10T06:52:07.135Z,61.9
2019-02-10T06:53:16.409Z,61.6
2019-02-10T06:54:25.703Z,61.7
2019-02-10T06:55:34.918Z,61.5
2019-02-10T06:56:44.182Z,61.8
2019-02-10T06:57:53.431Z,61.5
2019-02-10T06:59:02.760Z,61.4
2019-02-10T07:00:11.993Z,61.6
2019-02-10T07:01:21.215Z,61.4
2019-02-10T07:02:30.485Z,61.5
2019-02-10T07:03:39.741Z,61.2
2019-02-10T07:04:49.006Z,61.3
2019-02-10T07:05:58.280Z,61.4
2019-02-10T07:07:07.579Z,61.7
2019-02-10T07:08:16.794Z,61.3
2019-02-10T07:09:26.052Z,61.5
2019-02-10T07:10:35.321Z,61.6
2019-02-10T07:11:44.606Z,61.6
2019-02-10T07:12:53.845Z,61.1
2019-02-10T07:14:03.215Z,60.9
2019-02-10T07:15:12.453Z,61
2019-02-10T07:16:21.670Z,61
2019-02-10T07:17:30.910Z,60.9
2019-02-10T07:18:40.263Z,61.1
2019-02-10T07:19:49.475Z,61.3
2019-02-10T07:20:58.709Z,61.5
2019-02-10T07:22:07.977Z,61.2
2019-02-10T07:23:17.243Z,61.1
2019-02-10T07:24:26.575Z,60.8
2019-02-10T07:25:35.803Z,60.6
2019-02-10T07:26:45.049Z,60.8
2019-02-10T07:27:54.313Z,61.3
2019-02-10T07:29:03.629Z,61.5
2019-02-10T07:30:12.851Z,61.2
2019-02-10T07:31:22.117Z,61.5
2019-02-10T07:32:31.406Z,61.2
2019-02-10T07:33:40.657Z,61
2019-02-10T07:34:50.166Z,61.6
2019-02-10T07:35:59.212Z,61.2
2019-02-10T07:37:08.449Z,61.2
2019-02-10T07:38:17.726Z,60.8
2019-02-10T07:39:27.005Z,61.2
2019-02-10T07:40:36.278Z,61.2
2019-02-10T07:41:45.551Z,61.2
2019-02-10T07:42:54.813Z,61.1
2019-02-10T07:44:04.080Z,61.4
2019-02-10T07:45:13.348Z,60.7
2019-02-10T07:46:22.617Z,61.4
2019-02-10T07:47:31.951Z,61.6
2019-02-10T07:48:41.347Z,61.7
2019-02-10T07:49:50.426Z,62
2019-02-10T07:50:59.730Z,62.3
2019-02-10T07:52:09.077Z,63.1
2019-02-10T07:53:18.242Z,63.4
2019-02-10T07:54:27.547Z,61.3
2019-02-10T07:55:36.789Z,61.8
2019-02-10T07:56:46.079Z,61.7
2019-02-10T07:57:55.345Z,62.1
2019-02-10T07:59:04.603Z,61.6
2019-02-10T08:00:13.881Z,62.1
2019-02-10T08:01:23.428Z,61.4
2019-02-10T08:02:32.453Z,62
2019-02-10T08:03:41.706Z,61.4
2019-02-10T08:04:50.999Z,61.1
2019-02-10T08:06:00.245Z,61.4
2019-02-10T08:07:09.530Z,61.4
2019-02-10T08:08:18.805Z,61
2019-02-10T08:09:28.099Z,61.2
2019-02-10T08:10:37.392Z,60.4
2019-02-10T08:11:46.621Z,61.2
2019-02-10T08:12:55.889Z,61.9
2019-02-10T08:14:05.169Z,62.3
2019-02-10T08:15:14.483Z,64
2019-02-10T08:16:23.766Z,62.4
2019-02-10T08:17:33.023Z,63.3
2019-02-10T08:18:42.301Z,63.8
2019-02-10T08:19:51.546Z,65.2
2019-02-10T08:21:00.853Z,65.8
2019-02-10T08:22:10.089Z,66.5
2019-02-10T08:23:19.378Z,68.7
2019-02-10T08:24:28.632Z,69.6
2019-02-10T08:25:37.920Z,69.6
2019-02-10T08:26:47.178Z,70.9
2019-02-10T08:27:56.515Z,71.7
2019-02-10T08:29:05.766Z,73.3
2019-02-10T08:30:15.165Z,71.6
2019-02-10T08:31:24.286Z,72.7
2019-02-10T08:32:33.547Z,72.1
2019-02-10T08:33:42.891Z,73.5
2019-02-10T08:34:52.103Z,70.9
2019-02-10T08:36:01.436Z,73.8
2019-02-10T08:37:10.695Z,76.1
2019-02-10T08:38:19.922Z,74.8
2019-02-10T08:39:29.196Z,77
2019-02-10T08:40:38.469Z,75.7
2019-02-10T08:41:47.737Z,80.8
2019-02-10T08:42:57.039Z,78.9
2019-02-10T08:44:06.298Z,79.1
2019-02-10T08:45:15.557Z,79
2019-02-10T08:46:25.133Z,79.5
2019-02-10T08:47:34.142Z,79.2
2019-02-10T08:48:43.424Z,81.1
2019-02-10T08:49:52.664Z,78.7
2019-02-10T08:51:03.563Z,80.4
2019-02-10T08:52:12.842Z,84.8
2019-02-10T08:53:22.106Z,81.2
2019-02-10T08:54:31.484Z,85.1
2019-02-10T08:55:40.668Z,84.2
2019-02-10T08:56:49.933Z,83.6
2019-02-10T08:57:59.201Z,84.8
2019-02-10T08:59:08.474Z,84
2019-02-10T09:00:17.787Z,89
2019-02-10T09:01:27.057Z,90.4
2019-02-10T09:02:36.297Z,89.2
2019-02-10T09:03:45.576Z,90.4
2019-02-10T09:04:54.856Z,89.3
2019-02-10T09:06:04.121Z,90.4
2019-02-10T09:07:13.397Z,90.2
2019-02-10T09:08:22.653Z,90.4
2019-02-10T09:09:31.925Z,90.9
2019-02-10T09:10:41.208Z,92.3
2019-02-10T09:11:50.526Z,92.3
2019-02-10T09:12:59.737Z,92.9
2019-02-10T09:14:09.027Z,93.4
2019-02-10T09:15:18.271Z,93.6
2019-02-10T09:16:27.539Z,94.7
2019-02-10T09:17:36.803Z,94.7
2019-02-10T09:18:46.068Z,94.7
2019-02-10T09:19:55.340Z,94.7
2019-02-10T09:21:04.651Z,94.1
2019-02-10T09:22:13.885Z,94.5
2019-02-10T09:23:23.147Z,94.5
2019-02-10T09:24:32.428Z,94.6
2019-02-10T09:25:41.674Z,95.3
2019-02-10T09:26:50.946Z,95
2019-02-10T09:28:00.204Z,95
2019-02-10T09:29:09.494Z,96.1
2019-02-10T09:30:18.747Z,95.5
2019-02-10T09:31:28.006Z,95.9
2019-02-10T09:32:37.287Z,95.5
2019-02-10T09:33:46.592Z,95.9
2019-02-10T09:34:55.842Z,96
2019-02-10T09:36:05.060Z,96.1
2019-02-10T09:37:14.350Z,95.4
2019-02-10T09:38:23.691Z,95.6
2019-02-10T09:39:32.929Z,95.3
2019-02-10T09:40:42.107Z,95.9
2019-02-10T09:41:51.377Z,95.3
2019-02-10T09:43:00.626Z,96
2019-02-10T09:44:09.897Z,96
2019-02-10T09:45:19.170Z,95.8
2019-02-10T09:46:28.448Z,95.8
2019-02-10T09:47:37.737Z,96.4
2019-02-10T09:48:46.975Z,96.1
2019-02-10T09:49:56.244Z,95.7
2019-02-10T09:51:05.483Z,96.2
2019-02-10T09:52:14.766Z,95.9
2019-02-10T09:53:24.024Z,95.5
2019-02-10T09:54:33.290Z,95.1
2019-02-10T09:55:42.550Z,96.5
2019-02-10T09:56:51.824Z,96.8
2019-02-10T09:58:01.090Z,96.7
2019-02-10T09:59:10.351Z,96.3
2019-02-10T10:00:19.627Z,96.7
2019-02-10T10:01:28.892Z,96.2
2019-02-10T10:02:38.153Z,95.5
2019-02-10T10:03:47.454Z,95.6
2019-02-10T10:04:56.689Z,95.9
2019-02-10T10:06:05.955Z,96.5
2019-02-10T10:07:15.231Z,97.1
2019-02-10T10:08:24.511Z,96.4
2019-02-10T10:09:33.760Z,96.2
2019-02-10T10:10:43.030Z,97.3
2019-02-10T10:11:52.299Z,96.8
2019-02-10T10:13:01.542Z,97.1
2019-02-10T10:14:10.841Z,97.2
2019-02-10T10:15:20.091Z,97.1
2019-02-10T10:16:29.339Z,96.8
2019-02-10T10:17:38.626Z,96.6
2019-02-10T10:18:47.877Z,96.6
2019-02-10T10:19:57.158Z,96.4
2019-02-10T10:21:06.444Z,96.9
2019-02-10T10:22:15.663Z,96.7
2019-02-10T10:23:24.918Z,96.7
2019-02-10T10:24:34.187Z,97
2019-02-10T10:25:43.502Z,97.6
2019-02-10T10:26:52.726Z,97.1
2019-02-10T10:28:01.965Z,97.4
2019-02-10T10:29:11.231Z,97.7
2019-02-10T10:30:20.492Z,96.9
2019-02-10T10:31:29.771Z,96.9
2019-02-10T10:32:39.070Z,97.3
2019-02-10T10:33:48.331Z,97.8
2019-02-10T10:34:57.594Z,98.3
2019-02-10T10:36:06.828Z,97.6
2019-02-10T10:37:16.115Z,97.3
2019-02-10T10:38:25.387Z,97.4
2019-02-10T10:39:34.632Z,97.9
2019-02-10T10:40:43.929Z,97.7
2019-02-10T10:41:53.218Z,97.8
2019-02-10T10:43:02.463Z,97
2019-02-10T10:44:11.689Z,97.2
2019-02-10T10:45:20.971Z,96.7
2019-02-10T10:46:30.274Z,97.3
2019-02-10T10:47:39.501Z,97.2
2019-02-10T10:48:48.768Z,97
2019-02-10T10:49:58.082Z,97.7
2019-02-10T10:51:07.351Z,97.7
2019-02-10T10:52:16.630Z,97.3
2019-02-10T10:53:25.855Z,97.6
2019-02-10T10:54:43.107Z,96.6
2019-02-10T10:55:44.435Z,97
2019-02-10T10:56:53.659Z,96.2
2019-02-10T10:58:02.930Z,96.5
2019-02-10T10:59:12.191Z,97
2019-02-10T11:00:21.466Z,97
2019-02-10T11:01:30.739Z,97.7
2019-02-10T11:02:40.007Z,97.6
2019-02-10T11:03:49.374Z,97.7
2019-02-10T11:04:58.583Z,97.4
2019-02-10T11:06:07.818Z,97.3
2019-02-10T11:07:17.098Z,97.1
2019-02-10T11:08:26.461Z,97.3
2019-02-10T11:09:35.951Z,97.8
2019-02-10T11:10:44.916Z,96.4
2019-02-10T11:11:54.212Z,96.2
2019-02-10T11:13:03.457Z,97.1
2019-02-10T11:14:12.735Z,96.5
2019-02-10T11:15:22.015Z,97.3
2019-02-10T11:16:31.489Z,95.6
2019-02-10T11:17:40.568Z,96.3
2019-02-10T11:18:49.835Z,96.1
2019-02-10T11:19:59.098Z,96.2
2019-02-10T11:21:08.378Z,95.8
2019-02-10T11:22:17.683Z,95.9
2019-02-10T11:23:26.950Z,96.2
2019-02-10T11:24:36.220Z,96
2019-02-10T11:25:45.496Z,96.9
2019-02-10T11:26:54.939Z,95.9
2019-02-10T11:28:04.063Z,97
2019-02-10T11:29:13.451Z,97
2019-02-10T11:30:22.612Z,97.2
2019-02-10T11:31:31.909Z,97
2019-02-10T11:32:41.183Z,96.3
2019-02-10T11:33:50.485Z,95.8
2019-02-10T11:34:59.739Z,95.2
2019-02-10T11:36:09.068Z,96.3
2019-02-10T11:37:18.293Z,96.5
2019-02-10T11:38:27.654Z,97.7
2019-02-10T11:39:44.181Z,97.2
2019-02-10T11:40:46.261Z,96.8
2019-02-10T11:41:55.454Z,96.5
2019-02-10T11:43:04.747Z,97.2
2019-02-10T11:44:14.117Z,96.5
2019-02-10T11:45:23.305Z,96.2
2019-02-10T11:46:32.781Z,96.9
2019-02-10T11:47:41.917Z,96.5
2019-02-10T11:48:51.170Z,95.2
2019-02-10T11:50:00.441Z,94.7
2019-02-10T11:51:09.745Z,96.3
2019-02-10T11:52:19.019Z,96
2019-02-10T11:53:28.343Z,95.8
2019-02-10T11:54:37.607Z,96.2
2019-02-10T11:55:46.904Z,95.1
2019-02-10T11:56:56.211Z,96.1
2019-02-10T11:58:05.506Z,94.3
2019-02-10T11:59:14.820Z,94.8
2019-02-10T12:00:24.143Z,94.3
2019-02-10T12:01:33.390Z,93.2
2019-02-10T12:02:42.670Z,94.2
2019-02-10T12:03:51.976Z,93.5
2019-02-10T12:05:01.302Z,94.6
2019-02-10T12:06:10.551Z,93.4
2019-02-10T12:07:19.851Z,94.7
2019-02-10T12:08:35.988Z,99.9
2019-02-10T12:09:38.449Z,93.9
2019-02-10T12:10:47.913Z,94.9
2019-02-10T12:11:57.779Z,94.4
2019-02-10T12:13:06.345Z,95.1
2019-02-10T12:14:15.636Z,94.8
2019-02-10T12:15:24.980Z,94.3
2019-02-10T12:16:34.279Z,94.4
2019-02-10T12:17:43.561Z,94
2019-02-10T12:18:52.901Z,93.3
2019-02-10T12:20:02.176Z,93.3
2019-02-10T12:21:11.603Z,92.8
2019-02-10T12:22:20.750Z,93.9
2019-02-10T12:23:30.045Z,94.1
2019-02-10T12:24:40.159Z,93.2
2019-02-10T12:25:48.640Z,93
2019-02-10T12:26:57.937Z,94.6
2019-02-10T12:28:07.499Z,94.7
2019-02-10T12:29:16.683Z,94.2
2019-02-10T12:30:25.960Z,92.7
2019-02-10T12:31:35.150Z,94.8
2019-02-10T12:32:44.485Z,95.6
2019-02-10T12:33:53.775Z,95.1
2019-02-10T12:35:03.060Z,94.8
2019-02-10T12:36:12.454Z,93.5
2019-02-10T12:37:21.702Z,91.8
2019-02-10T12:38:30.971Z,93.2
2019-02-10T12:39:40.286Z,92.5
2019-02-10T12:40:49.590Z,93.2
2019-02-10T12:41:58.885Z,92.5
2019-02-10T12:43:08.191Z,93
2019-02-10T12:44:17.609Z,93.2
2019-02-10T12:45:26.823Z,93.3
2019-02-10T12:46:36.129Z,92.7
2019-02-10T12:47:45.426Z,93.7
2019-02-10T12:48:54.718Z,93.8
2019-02-10T12:50:04.043Z,93.3
2019-02-10T12:51:13.427Z,94.4
2019-02-10T12:52:22.657Z,94.6
2019-02-10T12:53:31.957Z,93.8
2019-02-10T12:54:41.370Z,94.6
2019-02-10T12:55:50.566Z,93.3
2019-02-10T12:56:59.941Z,94.1
2019-02-10T12:58:09.333Z,93.8
2019-02-10T12:59:18.524Z,98.8
2019-02-10T13:00:27.795Z,97.3
2019-02-10T13:01:37.125Z,95
2019-02-10T13:02:46.465Z,95.5
2019-02-10T13:03:55.715Z,97.1
2019-02-10T13:05:05.029Z,96.9
2019-02-10T13:06:14.386Z,96.3
2019-02-10T13:07:23.683Z,96.2
2019-02-10T13:08:33.070Z,95.3
2019-02-10T13:09:42.276Z,96.1
2019-02-10T13:10:51.561Z,95.4
2019-02-10T13:12:00.867Z,97
2019-02-10T13:13:10.167Z,99
2019-02-10T13:14:19.474Z,97.4
2019-02-10T13:15:29.205Z,98.9
2019-02-10T13:16:38.107Z,97.1
2019-02-10T13:17:47.436Z,95.4
2019-02-10T13:18:56.737Z,96.1
2019-02-10T13:20:06.104Z,96.6
2019-02-10T13:21:15.389Z,97.3
2019-02-10T13:22:24.663Z,96.3
2019-02-10T13:23:33.948Z,97.5
2019-02-10T13:24:43.239Z,97.2
2019-02-10T13:25:52.590Z,95.9
2019-02-10T13:27:01.897Z,95.5
2019-02-10T13:28:11.177Z,95.4
2019-02-10T13:29:20.518Z,95.4
2019-02-10T13:30:30.011Z,95.4
2019-02-10T13:31:39.185Z,94.4
2019-02-10T13:32:48.408Z,95.5
2019-02-10T13:33:57.738Z,96.8
2019-02-10T13:35:07.070Z,95.5
2019-02-10T13:36:16.468Z,95.6
2019-02-10T13:37:25.676Z,94.6
2019-02-10T13:38:34.983Z,94.3
2019-02-10T13:39:44.381Z,96.4
2019-02-10T13:40:53.609Z,96.7
2019-02-10T13:42:02.977Z,95.5
2019-02-10T13:43:12.222Z,95.5
2019-02-10T13:44:21.560Z,94.3
2019-02-10T13:45:30.882Z,95.5
2019-02-10T13:46:40.316Z,94.8
2019-02-10T13:47:49.483Z,94.4
2019-02-10T13:48:58.918Z,95.5
2019-02-10T13:50:08.126Z,95.2
2019-02-10T13:51:17.467Z,94.6
2019-02-10T13:52:26.741Z,95.5
2019-02-10T13:53:36.059Z,96.1
2019-02-10T13:54:45.366Z,95.4
2019-02-10T13:55:54.718Z,95.5
2019-02-10T13:57:04.165Z,94.1
2019-02-10T13:58:13.299Z,93.9
2019-02-10T13:59:22.716Z,95.4
2019-02-10T14:00:31.979Z,94.8
2019-02-10T14:01:41.335Z,95.5
2019-02-10T14:02:50.558Z,95.5
2019-02-10T14:03:59.879Z,96.5
2019-02-10T14:05:09.181Z,96.7
2019-02-10T14:06:18.599Z,97.5
2019-02-10T14:07:27.804Z,96.8
2019-02-10T14:08:37.116Z,96.7
2019-02-10T14:09:46.451Z,95.6
2019-02-10T14:10:55.738Z,97.6
2019-02-10T14:12:05.059Z,97.9
2019-02-10T14:13:14.353Z,98.3
2019-02-10T14:14:23.662Z,98.3
2019-02-10T14:15:32.978Z,98.1
2019-02-10T14:16:42.287Z,98.5
2019-02-10T14:17:51.616Z,98.6
2019-02-10T14:19:00.908Z,97.5
2019-02-10T14:20:10.208Z,97.8
2019-02-10T14:21:19.537Z,97.7
2019-02-10T14:22:28.838Z,98.4
2019-02-10T14:23:38.136Z,98.3
2019-02-10T14:24:47.527Z,98
2019-02-10T14:25:56.908Z,99.5
2019-02-10T14:27:06.074Z,98.2
2019-02-10T14:28:15.487Z,97.4
2019-02-10T14:29:24.695Z,97.6
2019-02-10T14:30:34.009Z,97.4
2019-02-10T14:31:43.317Z,97.9
2019-02-10T14:32:52.708Z,98.1
2019-02-10T14:34:03.527Z,98.2
2019-02-10T14:35:11.293Z,98.3
2019-02-10T14:36:20.550Z,98
2019-02-10T14:37:29.902Z,98.1
2019-02-10T14:38:39.266Z,97.9
2019-02-10T14:39:48.517Z,97.9
2019-02-10T14:40:57.798Z,98.1
2019-02-10T14:42:07.109Z,98.8
2019-02-10T14:43:16.427Z,98.4
2019-02-10T14:44:25.718Z,99
2019-02-10T14:45:35.040Z,99.2
2019-02-10T14:46:44.446Z,98.8
2019-02-10T14:47:53.657Z,98.8
2019-02-10T14:49:02.980Z,98.6
2019-02-10T14:50:12.330Z,98.2
2019-02-10T14:51:21.588Z,98.8
2019-02-10T14:52:30.911Z,98.2
2019-02-10T14:53:40.238Z,97.9
2019-02-10T14:54:49.549Z,97.7
2019-02-10T14:55:58.823Z,97.9
2019-02-10T14:57:08.121Z,98.1
2019-02-10T14:58:17.455Z,97.9
2019-02-10T14:59:26.760Z,97.4
2019-02-10T15:00:36.072Z,98.7
2019-02-10T15:01:45.362Z,98.1
2019-02-10T15:02:54.672Z,98.1
2019-02-10T15:04:04.002Z,98.3
2019-02-10T15:05:13.296Z,98.4
2019-02-10T15:06:22.630Z,98.4
2019-02-10T15:07:31.949Z,98.7
2019-02-10T15:08:41.255Z,98.7
2019-02-10T15:09:50.539Z,99.6
2019-02-10T15:10:59.881Z,99.6
2019-02-10T15:12:09.140Z,99.5
2019-02-10T15:13:18.494Z,99.5
2019-02-10T15:14:27.792Z,99.6
2019-02-10T15:15:37.074Z,99.2
2019-02-10T15:16:46.469Z,99.3
2019-02-10T15:17:55.695Z,98.9
2019-02-10T15:19:05.005Z,99.2
2019-02-10T15:20:14.300Z,99.1
2019-02-10T15:21:23.620Z,99.1
2019-02-10T15:22:32.930Z,99.3
2019-02-10T15:23:42.246Z,99.6
2019-02-10T15:24:51.538Z,99.2
2019-02-10T15:26:02.543Z,99.6
2019-02-10T15:27:10.174Z,99.2